Time,TemperatureF,DewpointF,PressureIn,WindDirection,WindDirectionDegrees,WindSpeedMPH,WindSpeedGustMPH,Humidity,HourlyPrecipIn,Conditions,Clouds,dailyrainin,SoftwareType,DateUTC
2013-09-17 00:01:00,54.3,49.3,30.05,North,360,0.0,0.0,83,0.00,SCT,,0.00,WeatherDisplay:10.37,2013-09-17 04:01:00,
2013-09-17 00:06:00,54.3,48.9,30.05,North,360,0.0,0.0,82,0.00,SCT,,0.00,WeatherDisplay:10.37,2013-09-17 04:06:00,
2013-09-17 00:11:00,54.1,49.1,30.06,North,360,0.0,0.0,83,0.00,SCT,,0.00,WeatherDisplay:10.37,2013-09-17 04:11:00,
2013-09-17 00:16:00,54.1,49.1,30.05,North,360,0.0,0.0,83,0.00,SCT,,0.00,WeatherDisplay:10.37,2013-09-17 04:16:00,
2013-09-17 00:21:00,54.1,49.1,30.06,North,360,0.0,0.0,83,0.00,SCT,,0.00,WeatherDisplay:10.37,2013-09-17 04:21:00,
2013-09-17 00:26:00,54.1,49.1,30.06,North,360,0.0,0.0,83,0.00,SCT,,0.00,WeatherDisplay:10.37,2013-09-17 04:26:00,
2013-09-17 00:31:00,54.1,49.1,30.05,North,360,0.0,0.0,83,0.00,CLR,,0.00,WeatherDisplay:10.37,2013-09-17 04:31:00,
2013-09-17 00:36:00,54.0,49.2,30.06,North,360,0.0,0.0,84,0.00,CLR,,0.00,WeatherDisplay:10.37,2013-09-17 04:36:00,
2013-09-17 00:41:00,53.8,49.1,30.06,North,360,0.0,0.0,84,0.00,CLR,,0.00,WeatherDisplay:10.37,2013-09-17 04:41:00,
2013-09-17 00:46:00,53.8,49.1,30.06,North,360,0.0,0.0,84,0.00,CLR,,0.00,WeatherDisplay:10.37,2013-09-17 04:46:00,
2013-09-17 00:51:00,53.8,49.1,30.06,North,360,0.0,0.0,84,0.00,CLR,,0.00,WeatherDisplay:10.37,2013-09-17 04:51:00,
2013-09-17 00:56:00,53.8,49.1,30.06,North,360,0.0,0.0,84,0.00,CLR,,0.00,WeatherDisplay:10.37,2013-09-17 04:56:00,
2013-09-17 01:01:00,53.6,48.9,30.06,North,360,0.0,0.0,84,0.00,CLR,,0.00,WeatherDisplay:10.37,2013-09-17 05:01:00,
2013-09-17 01:06:00,53.4,48.4,30.06,North,360,0.0,0.0,83,0.00,CLR,,0.00,WeatherDisplay:10.37,2013-09-17 05:06:00,
2013-09-17 01:11:00,53.4,48.7,30.06,North,360,0.0,0.0,84,0.00,CLR,,0.00,WeatherDisplay:10.37,2013-09-17 05:11:00,
2013-09-17 01:16:00,53.2,48.5,30.06,North,360,0.0,0.0,84,0.00,CLR,,0.00,WeatherDisplay:10.37,2013-09-17 05:16:00,
2013-09-17 01:21:00,53.2,48.2,30.06,North,360,0.0,0.0,83,0.00,SCT,,0.00,WeatherDisplay:10.37,2013-09-17 05:21:00,
2013-09-17 01:26:00,53.4,48.7,30.06,North,360,0.0,0.0,84,0.00,SCT,,0.00,WeatherDisplay:10.37,2013-09-17 05:26:00,
2013-09-17 01:31:00,53.4,48.7,30.06,North,360,0.0,0.0,84,0.00,SCT,,0.00,WeatherDisplay:10.37,2013-09-17 05:31:00,
2013-09-17 01:36:00,53.4,48.7,30.06,North,360,0.0,0.0,84,0.00,SCT,,0.00,WeatherDisplay:10.37,2013-09-17 05:36:00,
2013-09-17 01:41:00,53.2,48.5,30.06,North,360,0.0,0.0,84,0.00,OVC,,0.00,WeatherDisplay:10.37,2013-09-17 05:41:00,
2013-09-17 01:46:00,53.2,48.2,30.06,North,360,0.0,0.0,83,0.00,OVC,,0.00,WeatherDisplay:10.37,2013-09-17 05:46:00,
2013-09-17 01:51:00,53.1,48.0,30.06,North,360,0.0,0.0,83,0.00,OVC,,0.00,WeatherDisplay:10.37,2013-09-17 05:51:00,
2013-09-17 01:56:00,52.9,47.9,30.06,North,360,0.0,0.0,83,0.00,OVC,,0.00,WeatherDisplay:10.37,2013-09-17 05:56:00,
2013-09-17 02:01:00,52.7,47.7,30.06,North,360,0.0,0.0,83,0.00,OVC,,0.00,WeatherDisplay:10.37,2013-09-17 06:01:00,
2013-09-17 02:06:00,52.5,47.8,30.06,North,360,0.0,0.0,84,0.00,OVC,,0.00,WeatherDisplay:10.37,2013-09-17 06:06:00,
2013-09-17 02:11:00,52.5,47.8,30.06,North,360,0.0,0.0,84,0.00,OVC,,0.00,WeatherDisplay:10.37,2013-09-17 06:11:00,
2013-09-17 02:16:00,52.5,47.8,30.06,North,360,0.0,0.0,84,0.00,OVC,,0.00,WeatherDisplay:10.37,2013-09-17 06:16:00,
2013-09-17 02:21:00,52.7,48.0,30.06,North,360,0.0,0.0,84,0.00,OVC,,0.00,WeatherDisplay:10.37,2013-09-17 06:21:00,
2013-09-17 02:26:00,52.7,48.0,30.06,North,360,0.0,0.0,84,0.00,OVC,,0.00,WeatherDisplay:10.37,2013-09-17 06:26:00,
2013-09-17 02:31:00,52.7,48.0,30.06,North,360,0.0,0.0,84,0.00,OVC,,0.00,WeatherDisplay:10.37,2013-09-17 06:31:00,
2013-09-17 02:36:00,52.5,47.8,30.06,North,360,0.0,0.0,84,0.00,OVC,,0.00,WeatherDisplay:10.37,2013-09-17 06:36:00,
2013-09-17 02:41:00,52.5,47.8,30.06,North,360,0.0,0.0,84,0.00,BKN,,0.00,WeatherDisplay:10.37,2013-09-17 06:41:00,
2013-09-17 02:46:00,52.3,47.6,30.06,North,360,0.0,0.0,84,0.00,BKN,,0.00,WeatherDisplay:10.37,2013-09-17 06:46:00,
2013-09-17 02:51:00,52.3,47.6,30.06,North,360,0.0,0.0,84,0.00,BKN,,0.00,WeatherDisplay:10.37,2013-09-17 06:51:00,
2013-09-17 02:56:00,52.3,47.6,30.06,North,360,0.0,0.0,84,0.00,BKN,,0.00,WeatherDisplay:10.37,2013-09-17 06:56:00,
2013-09-17 03:01:00,52.3,47.6,30.06,North,360,0.0,0.0,84,0.00,OVC,,0.00,WeatherDisplay:10.37,2013-09-17 07:01:00,
2013-09-17 03:06:00,52.3,48.0,30.06,North,360,0.0,0.0,85,0.00,OVC,,0.00,WeatherDisplay:10.37,2013-09-17 07:06:00,
2013-09-17 03:11:00,52.5,48.1,30.06,North,360,0.0,0.0,85,0.00,OVC,,0.00,WeatherDisplay:10.37,2013-09-17 07:11:00,
2013-09-17 03:16:00,52.7,48.3,30.06,North,360,0.0,0.0,85,0.00,OVC,,0.00,WeatherDisplay:10.37,2013-09-17 07:16:00,
2013-09-17 03:21:00,52.9,48.5,30.07,North,360,0.0,0.0,85,0.00,OVC,,0.00,WeatherDisplay:10.37,2013-09-17 07:21:00,
2013-09-17 03:26:00,52.9,48.5,30.07,North,360,0.0,0.0,85,0.00,OVC,,0.00,WeatherDisplay:10.37,2013-09-17 07:26:00,
2013-09-17 03:31:00,53.2,48.8,30.07,North,360,0.0,0.0,85,0.00,OVC,,0.00,WeatherDisplay:10.37,2013-09-17 07:31:00,
2013-09-17 03:36:00,53.2,48.8,30.08,North,360,0.0,0.0,85,0.00,OVC,,0.00,WeatherDisplay:10.37,2013-09-17 07:36:00,
2013-09-17 03:41:00,53.2,48.8,30.08,North,360,0.0,0.0,85,0.00,OVC,,0.00,WeatherDisplay:10.37,2013-09-17 07:41:00,
2013-09-17 03:46:00,53.4,49.0,30.07,North,360,0.0,0.0,85,0.00,OVC,,0.00,WeatherDisplay:10.37,2013-09-17 07:46:00,
2013-09-17 03:51:00,53.8,49.1,30.07,North,360,0.0,0.0,84,0.00,OVC,,0.00,WeatherDisplay:10.37,2013-09-17 07:51:00,
2013-09-17 03:56:00,54.0,49.2,30.08,North,360,0.0,0.0,84,0.00,OVC,,0.00,WeatherDisplay:10.37,2013-09-17 07:56:00,
2013-09-17 04:01:00,54.3,49.6,30.08,North,360,0.0,0.0,84,0.00,OVC,,0.00,WeatherDisplay:10.37,2013-09-17 08:01:00,
2013-09-17 04:06:00,54.7,49.9,30.08,North,360,0.0,0.0,84,0.00,OVC,,0.00,WeatherDisplay:10.37,2013-09-17 08:06:00,
2013-09-17 04:11:00,55.0,50.0,30.08,North,360,0.0,0.0,83,0.00,OVC,,0.00,WeatherDisplay:10.37,2013-09-17 08:11:00,
2013-09-17 04:16:00,55.2,50.1,30.08,North,360,0.0,0.0,83,0.00,OVC,,0.00,WeatherDisplay:10.37,2013-09-17 08:16:00,
2013-09-17 04:21:00,55.2,50.1,30.08,North,360,0.0,0.0,83,0.00,OVC,,0.00,WeatherDisplay:10.37,2013-09-17 08:21:00,
2013-09-17 04:26:00,55.2,50.1,30.08,North,360,0.0,0.0,83,0.00,OVC,,0.00,WeatherDisplay:10.37,2013-09-17 08:26:00,
2013-09-17 04:31:00,55.2,50.1,30.08,North,360,0.0,0.0,83,0.00,BKN,,0.00,WeatherDisplay:10.37,2013-09-17 08:31:00,
2013-09-17 04:36:00,55.0,50.0,30.08,North,360,0.0,0.0,83,0.00,BKN,,0.00,WeatherDisplay:10.37,2013-09-17 08:36:00,
2013-09-17 04:41:00,55.0,50.0,30.09,North,360,0.0,0.0,83,0.00,BKN,,0.00,WeatherDisplay:10.37,2013-09-17 08:41:00,
2013-09-17 04:46:00,54.9,49.8,30.09,North,360,0.0,0.0,83,0.00,BKN,,0.00,WeatherDisplay:10.37,2013-09-17 08:46:00,
2013-09-17 04:51:00,54.7,49.6,30.08,North,360,0.0,0.0,83,0.00,OVC,,0.00,WeatherDisplay:10.37,2013-09-17 08:51:00,
2013-09-17 04:56:00,54.7,49.6,30.08,North,360,0.0,0.0,83,0.00,OVC,,0.00,WeatherDisplay:10.37,2013-09-17 08:56:00,
2013-09-17 05:01:00,54.5,49.4,30.09,North,360,0.0,0.0,83,0.00,OVC,,0.00,WeatherDisplay:10.37,2013-09-17 09:01:00,
2013-09-17 05:06:00,54.5,49.4,30.09,North,360,0.0,0.0,83,0.00,OVC,,0.00,WeatherDisplay:10.37,2013-09-17 09:06:00,
2013-09-17 05:11:00,54.3,49.3,30.09,North,360,0.0,0.0,83,0.00,BKN,,0.00,WeatherDisplay:10.37,2013-09-17 09:11:00,
2013-09-17 05:16:00,54.1,49.1,30.09,North,360,0.0,0.0,83,0.00,BKN,,0.00,WeatherDisplay:10.37,2013-09-17 09:16:00,
2013-09-17 05:21:00,53.8,48.7,30.09,North,360,0.0,0.0,83,0.00,BKN,,0.00,WeatherDisplay:10.37,2013-09-17 09:21:00,
2013-09-17 05:26:00,53.6,48.6,30.09,North,360,0.0,0.0,83,0.00,BKN,,0.00,WeatherDisplay:10.37,2013-09-17 09:26:00,
2013-09-17 05:31:00,53.4,48.4,30.10,North,360,0.0,0.0,83,0.00,OVC,,0.00,WeatherDisplay:10.37,2013-09-17 09:31:00,
2013-09-17 05:36:00,53.4,48.4,30.10,North,360,0.0,0.0,83,0.00,OVC,,0.00,WeatherDisplay:10.37,2013-09-17 09:36:00,
2013-09-17 05:41:00,53.4,48.7,30.10,North,360,0.0,0.0,84,0.00,OVC,,0.00,WeatherDisplay:10.37,2013-09-17 09:41:00,
2013-09-17 05:46:00,53.4,48.7,30.10,North,360,0.0,0.0,84,0.00,OVC,,0.00,WeatherDisplay:10.37,2013-09-17 09:46:00,
2013-09-17 05:51:00,53.6,48.9,30.11,North,360,0.0,0.0,84,0.00,OVC,,0.00,WeatherDisplay:10.37,2013-09-17 09:51:00,
2013-09-17 05:56:00,53.8,49.1,30.11,North,360,0.0,0.0,84,0.00,OVC,,0.00,WeatherDisplay:10.37,2013-09-17 09:56:00,
2013-09-17 06:01:00,53.8,49.1,30.11,North,360,0.0,0.0,84,0.00,OVC,,0.00,WeatherDisplay:10.37,2013-09-17 10:01:00,
2013-09-17 06:06:00,53.8,49.1,30.11,North,360,0.0,0.0,84,0.00,OVC,,0.00,WeatherDisplay:10.37,2013-09-17 10:06:00,
2013-09-17 06:11:00,53.8,49.1,30.11,North,360,0.0,0.0,84,0.00,OVC,,0.00,WeatherDisplay:10.37,2013-09-17 10:11:00,
2013-09-17 06:16:00,53.8,49.1,30.11,North,360,0.0,0.0,84,0.00,OVC,,0.00,WeatherDisplay:10.37,2013-09-17 10:16:00,
2013-09-17 06:21:00,53.8,49.1,30.11,North,360,0.0,0.0,84,0.00,OVC,,0.00,WeatherDisplay:10.37,2013-09-17 10:21:00,
2013-09-17 06:26:00,53.8,49.1,30.12,North,360,0.0,0.0,84,0.00,OVC,,0.00,WeatherDisplay:10.37,2013-09-17 10:26:00,
2013-09-17 06:31:00,53.8,49.1,30.12,North,360,0.0,0.0,84,0.00,OVC,,0.00,WeatherDisplay:10.37,2013-09-17 10:31:00,
2013-09-17 06:36:00,53.8,49.1,30.12,North,360,0.0,0.0,84,0.00,OVC,,0.00,WeatherDisplay:10.37,2013-09-17 10:36:00,
2013-09-17 06:41:00,53.8,49.1,30.12,North,360,0.0,0.0,84,0.00,OVC,,0.00,WeatherDisplay:10.37,2013-09-17 10:41:00,
2013-09-17 06:46:00,53.8,49.1,30.13,North,360,0.0,0.0,84,0.00,OVC,,0.00,WeatherDisplay:10.37,2013-09-17 10:46:00,
2013-09-17 06:51:00,53.8,49.1,30.13,North,360,0.0,0.0,84,0.00,OVC,,0.00,WeatherDisplay:10.37,2013-09-17 10:51:00,
2013-09-17 06:56:00,53.4,48.7,30.13,North,360,0.0,0.0,84,0.00,OVC,,0.00,WeatherDisplay:10.37,2013-09-17 10:56:00,
2013-09-17 07:01:00,53.4,48.7,30.13,North,360,0.0,0.0,84,0.00,OVC,,0.00,WeatherDisplay:10.37,2013-09-17 11:01:00,
2013-09-17 07:06:00,53.4,48.7,30.13,North,360,0.0,0.0,84,0.00,OVC,,0.00,WeatherDisplay:10.37,2013-09-17 11:06:00,
2013-09-17 07:11:00,53.2,48.5,30.13,North,360,0.0,0.0,84,0.00,OVC,,0.00,WeatherDisplay:10.37,2013-09-17 11:11:00,
2013-09-17 07:16:00,53.2,48.5,30.13,North,360,0.0,0.0,84,0.00,OVC,,0.00,WeatherDisplay:10.37,2013-09-17 11:16:00,
2013-09-17 07:21:00,53.2,48.5,30.13,North,360,0.0,0.0,84,0.00,OVC,,0.00,WeatherDisplay:10.37,2013-09-17 11:21:00,
2013-09-17 07:26:00,52.9,48.2,30.14,North,360,0.0,0.0,84,0.00,OVC,,0.00,WeatherDisplay:10.37,2013-09-17 11:26:00,
2013-09-17 07:31:00,52.9,48.2,30.14,North,360,0.0,0.0,84,0.00,OVC,,0.00,WeatherDisplay:10.37,2013-09-17 11:31:00,
2013-09-17 07:36:00,52.9,48.2,30.14,North,360,0.0,0.0,84,0.00,OVC,,0.00,WeatherDisplay:10.37,2013-09-17 11:36:00,
2013-09-17 07:41:00,52.9,48.2,30.14,NE,50,4.6,4.6,84,0.00,OVC,,0.00,WeatherDisplay:10.37,2013-09-17 11:41:00,
2013-09-17 07:46:00,52.7,48.0,30.14,NE,50,4.6,4.6,84,0.00,OVC,,0.00,WeatherDisplay:10.37,2013-09-17 11:46:00,
2013-09-17 07:51:00,52.7,48.0,30.14,NE,50,4.6,4.6,84,0.00,OVC,,0.00,WeatherDisplay:10.37,2013-09-17 11:51:00,
2013-09-17 07:56:00,52.9,48.2,30.14,NE,50,4.6,4.6,84,0.00,OVC,,0.00,WeatherDisplay:10.37,2013-09-17 11:56:00,
2013-09-17 08:01:00,52.9,48.2,30.14,NE,50,5.8,5.8,84,0.00,OVC,,0.00,WeatherDisplay:10.37,2013-09-17 12:01:00,
2013-09-17 08:06:00,53.2,48.5,30.14,NE,50,5.8,5.8,84,0.00,OVC,,0.00,WeatherDisplay:10.37,2013-09-17 12:06:00,
2013-09-17 08:12:00,53.4,48.7,30.14,NE,50,5.8,5.8,84,0.00,OVC,,0.00,WeatherDisplay:10.37,2013-09-17 12:12:00,
2013-09-17 08:17:00,53.8,48.7,30.14,NE,50,5.8,5.8,83,0.00,OVC,,0.00,WeatherDisplay:10.37,2013-09-17 12:17:00,
2013-09-17 08:22:00,53.8,48.7,30.15,ENE,60,5.8,5.8,83,0.00,OVC,,0.00,WeatherDisplay:10.37,2013-09-17 12:22:00,
2013-09-17 08:27:00,54.0,48.9,30.15,ENE,60,5.8,5.8,83,0.00,OVC,,0.00,WeatherDisplay:10.37,2013-09-17 12:27:00,
2013-09-17 08:32:00,54.1,48.8,30.15,ENE,60,5.8,5.8,82,0.00,OVC,,0.00,WeatherDisplay:10.37,2013-09-17 12:32:00,
2013-09-17 08:37:00,54.5,49.4,30.16,ENE,60,5.8,5.8,83,0.00,OVC,,0.00,WeatherDisplay:10.37,2013-09-17 12:37:00,
2013-09-17 08:42:00,55.0,49.6,30.16,ENE,60,5.8,5.8,82,0.00,OVC,,0.00,WeatherDisplay:10.37,2013-09-17 12:42:00,
2013-09-17 08:47:00,55.0,49.3,30.16,ENE,60,5.8,5.8,81,0.00,OVC,,0.00,WeatherDisplay:10.37,2013-09-17 12:47:00,
2013-09-17 08:52:00,55.0,49.3,30.16,NE,50,5.8,5.8,81,0.00,OVC,,0.00,WeatherDisplay:10.37,2013-09-17 12:52:00,
2013-09-17 08:57:00,55.0,49.3,30.16,NE,50,4.6,4.6,81,0.00,OVC,,0.00,WeatherDisplay:10.37,2013-09-17 12:57:00,
2013-09-17 09:02:00,55.0,49.3,30.16,NE,50,4.6,4.6,81,0.00,OVC,,0.00,WeatherDisplay:10.37,2013-09-17 13:02:00,
2013-09-17 09:07:00,54.9,49.1,30.16,NE,50,4.6,4.6,81,0.00,OVC,,0.00,WeatherDisplay:10.37,2013-09-17 13:07:00,
2013-09-17 09:12:00,54.9,49.1,30.17,ENE,60,8.1,8.1,81,0.00,OVC,,0.00,WeatherDisplay:10.37,2013-09-17 13:12:00,
2013-09-17 09:17:00,54.9,48.8,30.16,ENE,60,8.1,8.1,80,0.00,OVC,,0.00,WeatherDisplay:10.37,2013-09-17 13:17:00,
2013-09-17 09:22:00,55.0,49.0,30.16,ENE,60,8.1,8.1,80,0.00,OVC,,0.00,WeatherDisplay:10.37,2013-09-17 13:22:00,
2013-09-17 09:27:00,54.9,48.8,30.17,ENE,60,8.1,8.1,80,0.00,OVC,,0.00,WeatherDisplay:10.37,2013-09-17 13:27:00,
2013-09-17 09:32:00,54.7,48.6,30.17,ENE,70,8.1,8.1,80,0.00,OVC,,0.00,WeatherDisplay:10.37,2013-09-17 13:32:00,
2013-09-17 09:37:00,54.7,48.6,30.17,ENE,70,8.1,8.1,80,0.00,OVC,,0.00,WeatherDisplay:10.37,2013-09-17 13:37:00,
2013-09-17 09:42:00,54.5,48.8,30.17,ENE,70,8.1,8.1,81,0.00,OVC,,0.00,WeatherDisplay:10.37,2013-09-17 13:42:00,
2013-09-17 09:47:00,54.5,48.8,30.17,ENE,70,8.1,8.1,81,0.00,OVC,,0.00,WeatherDisplay:10.37,2013-09-17 13:47:00,
2013-09-17 09:52:00,54.7,49.0,30.17,ENE,60,8.1,8.1,81,0.00,OVC,,0.00,WeatherDisplay:10.37,2013-09-17 13:52:00,
2013-09-17 09:57:00,54.7,49.0,30.17,ENE,60,5.8,5.8,81,0.00,OVC,,0.00,WeatherDisplay:10.37,2013-09-17 13:57:00,
2013-09-17 10:02:00,54.5,48.8,30.17,ENE,60,5.8,5.8,81,0.00,OVC,,0.00,WeatherDisplay:10.37,2013-09-17 14:02:00,
2013-09-17 10:07:00,54.5,48.8,30.17,ENE,60,5.8,5.8,81,0.00,OVC,,0.00,WeatherDisplay:10.37,2013-09-17 14:07:00,
2013-09-17 10:12:00,54.7,49.0,30.17,NNE,30,8.1,8.1,81,0.00,OVC,,0.00,WeatherDisplay:10.37,2013-09-17 14:12:00,
2013-09-17 10:17:00,54.9,49.1,30.18,NNE,30,8.1,8.1,81,0.00,OVC,,0.00,WeatherDisplay:10.37,2013-09-17 14:17:00,
2013-09-17 10:22:00,55.2,49.2,30.17,NNE,30,8.1,8.1,80,0.00,OVC,,0.00,WeatherDisplay:10.37,2013-09-17 14:22:00,
2013-09-17 10:27:00,55.2,48.8,30.18,NNE,30,8.1,8.1,79,0.00,OVC,,0.00,WeatherDisplay:10.37,2013-09-17 14:27:00,
2013-09-17 10:32:00,55.9,49.5,30.18,ENE,70,10.4,10.4,79,0.00,OVC,,0.00,WeatherDisplay:10.37,2013-09-17 14:32:00,
2013-09-17 10:37:00,55.9,49.2,30.18,ENE,70,10.4,10.4,78,0.00,OVC,,0.00,WeatherDisplay:10.37,2013-09-17 14:37:00,
2013-09-17 10:42:00,56.1,49.4,30.18,ENE,70,10.4,10.4,78,0.00,OVC,,0.00,WeatherDisplay:10.37,2013-09-17 14:42:00,
2013-09-17 10:47:00,56.3,49.5,30.18,ENE,70,10.4,10.4,78,0.00,OVC,,0.00,WeatherDisplay:10.37,2013-09-17 14:47:00,
2013-09-17 10:52:00,56.3,49.5,30.18,ENE,70,10.4,10.4,78,0.00,OVC,,0.00,WeatherDisplay:10.37,2013-09-17 14:52:00,
2013-09-17 10:57:00,56.3,49.5,30.18,ENE,70,9.2,9.2,78,0.00,OVC,,0.00,WeatherDisplay:10.37,2013-09-17 14:57:00,
2013-09-17 11:02:00,56.5,49.4,30.18,NE,40,9.2,9.2,77,0.00,OVC,,0.00,WeatherDisplay:10.37,2013-09-17 15:02:00,
2013-09-17 11:07:00,57.0,49.9,30.18,NE,40,6.9,6.9,77,0.00,OVC,,0.00,WeatherDisplay:10.37,2013-09-17 15:07:00,
2013-09-17 11:12:00,57.9,50.8,30.18,NE,40,6.9,6.9,77,0.00,OVC,,0.00,WeatherDisplay:10.37,2013-09-17 15:12:00,
2013-09-17 11:17:00,58.5,50.9,30.18,NE,40,6.9,6.9,76,0.00,OVC,,0.00,WeatherDisplay:10.37,2013-09-17 15:17:00,
2013-09-17 11:22:00,59.4,51.4,30.18,ENE,70,9.2,9.2,75,0.00,OVC,,0.00,WeatherDisplay:10.37,2013-09-17 15:22:00,
2013-09-17 11:27:00,59.9,51.6,30.18,ENE,70,9.2,9.2,74,0.00,OVC,,0.00,WeatherDisplay:10.37,2013-09-17 15:27:00,
2013-09-17 11:32:00,60.1,51.8,30.18,ENE,70,9.2,9.2,74,0.00,OVC,,0.00,WeatherDisplay:10.37,2013-09-17 15:32:00,
2013-09-17 11:37:00,59.7,51.0,30.18,ENE,70,9.2,9.2,73,0.00,OVC,,0.00,WeatherDisplay:10.37,2013-09-17 15:37:00,
2013-09-17 11:42:00,60.1,51.4,30.18,ENE,70,8.1,8.1,73,0.00,OVC,,0.00,WeatherDisplay:10.37,2013-09-17 15:42:00,
2013-09-17 11:47:00,60.4,51.4,30.18,ENE,70,8.1,8.1,72,0.00,OVC,,0.00,WeatherDisplay:10.37,2013-09-17 15:47:00,
2013-09-17 11:52:00,60.1,51.0,30.18,ENE,70,8.1,8.1,72,0.00,OVC,,0.00,WeatherDisplay:10.37,2013-09-17 15:52:00,
2013-09-17 11:57:00,60.6,51.2,30.18,ENE,70,8.1,8.1,71,0.00,OVC,,0.00,WeatherDisplay:10.37,2013-09-17 15:57:00,
2013-09-17 12:02:00,61.0,51.5,30.18,NE,40,8.1,8.1,71,0.00,OVC,,0.00,WeatherDisplay:10.37,2013-09-17 16:02:00,
2013-09-17 12:07:00,61.0,51.1,30.18,NE,40,8.1,8.1,70,0.00,OVC,,0.00,WeatherDisplay:10.37,2013-09-17 16:07:00,
2013-09-17 12:12:00,60.8,51.0,30.18,NE,40,8.1,8.1,70,0.00,OVC,,0.00,WeatherDisplay:10.37,2013-09-17 16:12:00,
2013-09-17 12:17:00,60.6,50.8,30.18,NE,40,8.1,8.1,70,0.00,OVC,,0.00,WeatherDisplay:10.37,2013-09-17 16:17:00,
2013-09-17 12:22:00,60.6,50.8,30.18,ENE,70,9.2,9.2,70,0.00,BKN,,0.00,WeatherDisplay:10.37,2013-09-17 16:22:00,
2013-09-17 12:27:00,60.6,50.4,30.18,ENE,70,9.2,9.2,69,0.00,BKN,,0.00,WeatherDisplay:10.37,2013-09-17 16:27:00,
2013-09-17 12:32:00,60.8,50.6,30.18,ENE,70,9.2,9.2,69,0.00,BKN,,0.00,WeatherDisplay:10.37,2013-09-17 16:32:00,
2013-09-17 12:37:00,60.4,49.8,30.18,ENE,70,9.2,9.2,68,0.00,BKN,,0.00,WeatherDisplay:10.37,2013-09-17 16:37:00,
2013-09-17 12:42:00,60.6,50.4,30.17,East,80,4.6,4.6,69,0.00,BKN,,0.00,WeatherDisplay:10.37,2013-09-17 16:42:00,
2013-09-17 12:47:00,60.6,50.0,30.17,East,80,4.6,4.6,68,0.00,BKN,,0.00,WeatherDisplay:10.37,2013-09-17 16:47:00,
2013-09-17 12:52:00,61.0,50.7,30.16,East,80,4.6,4.6,69,0.00,BKN,,0.00,WeatherDisplay:10.37,2013-09-17 16:52:00,
2013-09-17 12:57:00,61.3,50.3,30.17,East,80,4.6,4.6,67,0.00,BKN,,0.00,WeatherDisplay:10.37,2013-09-17 16:57:00,
2013-09-17 13:02:00,61.5,50.5,30.16,East,80,4.6,4.6,67,0.00,BKN,,0.00,WeatherDisplay:10.37,2013-09-17 17:02:00,
2013-09-17 13:07:00,61.7,50.6,30.16,East,80,4.6,4.6,67,0.00,BKN,,0.00,WeatherDisplay:10.37,2013-09-17 17:07:00,
2013-09-17 13:12:00,61.9,50.4,30.16,East,80,4.6,4.6,66,0.00,BKN,,0.00,WeatherDisplay:10.37,2013-09-17 17:12:00,
2013-09-17 13:17:00,61.9,50.4,30.16,East,80,4.6,4.6,66,0.00,BKN,,0.00,WeatherDisplay:10.37,2013-09-17 17:17:00,
2013-09-17 13:22:00,61.7,50.2,30.16,East,80,4.6,4.6,66,0.00,BKN,,0.00,WeatherDisplay:10.37,2013-09-17 17:22:00,
2013-09-17 13:27:00,61.9,50.4,30.16,East,80,4.6,4.6,66,0.00,BKN,,0.00,WeatherDisplay:10.37,2013-09-17 17:27:00,
2013-09-17 13:32:00,61.7,50.6,30.16,East,80,0.0,0.0,67,0.00,BKN,,0.00,WeatherDisplay:10.37,2013-09-17 17:32:00,
2013-09-17 13:37:00,61.9,50.4,30.16,East,80,0.0,0.0,66,0.00,BKN,,0.00,WeatherDisplay:10.37,2013-09-17 17:37:00,
2013-09-17 13:42:00,62.2,50.7,30.15,East,80,0.0,0.0,66,0.00,BKN,,0.00,WeatherDisplay:10.37,2013-09-17 17:42:00,
2013-09-17 13:47:00,62.6,51.1,30.15,East,80,0.0,0.0,66,0.00,BKN,,0.00,WeatherDisplay:10.37,2013-09-17 17:47:00,
2013-09-17 13:52:00,62.8,50.8,30.15,East,80,0.0,0.0,65,0.00,OVC,,0.00,WeatherDisplay:10.37,2013-09-17 17:52:00,
2013-09-17 13:57:00,62.8,50.4,30.15,East,80,0.0,0.0,64,0.00,OVC,,0.00,WeatherDisplay:10.37,2013-09-17 17:57:00,
2013-09-17 14:03:00,62.8,50.8,30.15,East,80,0.0,0.0,65,0.00,OVC,,0.00,WeatherDisplay:10.37,2013-09-17 18:03:00,
2013-09-17 14:08:00,62.8,50.4,30.15,East,80,0.0,0.0,64,0.00,OVC,,0.00,WeatherDisplay:10.37,2013-09-17 18:08:00,
2013-09-17 14:13:00,63.0,50.6,30.15,NNE,20,6.9,6.9,64,0.00,OVC,,0.00,WeatherDisplay:10.37,2013-09-17 18:13:00,
2013-09-17 14:18:00,63.0,50.6,30.14,NNE,20,6.9,6.9,64,0.00,OVC,,0.00,WeatherDisplay:10.37,2013-09-17 18:18:00,
2013-09-17 14:23:00,63.3,50.9,30.14,NNE,20,6.9,6.9,64,0.00,OVC,,0.00,WeatherDisplay:10.37,2013-09-17 18:23:00,
2013-09-17 14:28:00,63.5,51.1,30.14,NNE,20,6.9,6.9,64,0.00,OVC,,0.00,WeatherDisplay:10.37,2013-09-17 18:28:00,
2013-09-17 14:33:00,63.7,50.8,30.13,NNE,20,0.0,0.0,63,0.00,BKN,,0.00,WeatherDisplay:10.37,2013-09-17 18:33:00,
2013-09-17 14:38:00,64.0,51.2,30.13,NNE,20,0.0,0.0,63,0.00,BKN,,0.00,WeatherDisplay:10.37,2013-09-17 18:38:00,
2013-09-17 14:43:00,64.0,51.2,30.13,NNE,20,0.0,0.0,63,0.00,BKN,,0.00,WeatherDisplay:10.37,2013-09-17 18:43:00,
2013-09-17 14:48:00,63.7,50.4,30.13,NNE,20,0.0,0.0,62,0.00,BKN,,0.00,WeatherDisplay:10.37,2013-09-17 18:48:00,
2013-09-17 14:53:00,63.5,50.7,30.13,NNW,340,6.9,6.9,63,0.00,SCT,,0.00,WeatherDisplay:10.37,2013-09-17 18:53:00,
2013-09-17 14:58:00,63.7,50.4,30.13,NNW,340,6.9,6.9,62,0.00,SCT,,0.00,WeatherDisplay:10.37,2013-09-17 18:58:00,
2013-09-17 15:03:00,63.7,50.4,30.13,NNW,340,0.0,0.0,62,0.00,SCT,,0.00,WeatherDisplay:10.37,2013-09-17 19:03:00,
2013-09-17 15:08:00,63.7,50.4,30.13,NNW,340,0.0,0.0,62,0.00,SCT,,0.00,WeatherDisplay:10.37,2013-09-17 19:08:00,
2013-09-17 15:13:00,64.0,50.8,30.12,NNW,340,0.0,0.0,62,0.00,SCT,,0.00,WeatherDisplay:10.37,2013-09-17 19:13:00,
2013-09-17 15:18:00,63.7,50.4,30.12,NNW,340,0.0,0.0,62,0.00,SCT,,0.00,WeatherDisplay:10.37,2013-09-17 19:18:00,
2013-09-17 15:23:00,63.5,50.2,30.12,NNW,340,0.0,0.0,62,0.00,SCT,,0.00,WeatherDisplay:10.37,2013-09-17 19:23:00,
2013-09-17 15:28:00,63.7,50.4,30.12,NNW,340,0.0,0.0,62,0.00,SCT,,0.00,WeatherDisplay:10.37,2013-09-17 19:28:00,
2013-09-17 15:33:00,63.7,50.0,30.11,NW,320,3.5,3.5,61,0.00,SCT,,0.00,WeatherDisplay:10.37,2013-09-17 19:33:00,
2013-09-17 15:38:00,64.0,50.3,30.11,NW,320,3.5,3.5,61,0.00,SCT,,0.00,WeatherDisplay:10.37,2013-09-17 19:38:00,
2013-09-17 15:43:00,64.0,50.3,30.12,NNW,340,3.5,3.5,61,0.00,SCT,,0.00,WeatherDisplay:10.37,2013-09-17 19:43:00,
2013-09-17 15:48:00,64.0,49.9,30.11,NNW,340,3.5,3.5,60,0.00,SCT,,0.00,WeatherDisplay:10.37,2013-09-17 19:48:00,
2013-09-17 15:53:00,63.9,49.7,30.11,NNW,340,3.5,3.5,60,0.00,SCT,,0.00,WeatherDisplay:10.37,2013-09-17 19:53:00,
2013-09-17 15:58:00,64.0,50.3,30.11,NNW,340,3.5,3.5,61,0.00,SCT,,0.00,WeatherDisplay:10.37,2013-09-17 19:58:00,
2013-09-17 16:03:00,64.2,50.0,30.10,SE,140,3.5,3.5,60,0.00,BKN,,0.00,WeatherDisplay:10.37,2013-09-17 20:03:00,
2013-09-17 16:08:00,64.2,50.0,30.10,SE,140,3.5,3.5,60,0.00,BKN,,0.00,WeatherDisplay:10.37,2013-09-17 20:08:00,
2013-09-17 16:13:00,64.2,50.0,30.10,SE,140,3.5,3.5,60,0.00,BKN,,0.00,WeatherDisplay:10.37,2013-09-17 20:13:00,
2013-09-17 16:18:00,64.0,49.9,30.10,SE,140,3.5,3.5,60,0.00,BKN,,0.00,WeatherDisplay:10.37,2013-09-17 20:18:00,
2013-09-17 16:23:00,64.0,49.9,30.10,ESE,120,3.5,3.5,60,0.00,SCT,,0.00,WeatherDisplay:10.37,2013-09-17 20:23:00,
2013-09-17 16:28:00,64.2,49.6,30.10,ESE,120,3.5,3.5,59,0.00,SCT,,0.00,WeatherDisplay:10.37,2013-09-17 20:28:00,
2013-09-17 16:33:00,64.0,49.4,30.10,ESE,120,3.5,3.5,59,0.00,SCT,,0.00,WeatherDisplay:10.37,2013-09-17 20:33:00,
2013-09-17 16:38:00,64.2,49.6,30.10,ESE,120,3.5,3.5,59,0.00,SCT,,0.00,WeatherDisplay:10.37,2013-09-17 20:38:00,
2013-09-17 16:43:00,64.2,49.6,30.10,ESE,120,0.0,0.0,59,0.00,SCT,,0.00,WeatherDisplay:10.37,2013-09-17 20:43:00,
2013-09-17 16:48:00,64.2,49.6,30.10,ESE,120,0.0,0.0,59,0.00,SCT,,0.00,WeatherDisplay:10.37,2013-09-17 20:48:00,
2013-09-17 16:53:00,64.6,49.9,30.09,ESE,120,0.0,0.0,59,0.00,SCT,,0.00,WeatherDisplay:10.37,2013-09-17 20:53:00,
2013-09-17 16:58:00,64.6,49.9,30.09,ESE,120,0.0,0.0,59,0.00,SCT,,0.00,WeatherDisplay:10.37,2013-09-17 20:58:00,
2013-09-17 17:03:00,64.6,49.9,30.09,ESE,120,0.0,0.0,59,0.00,SCT,,0.00,WeatherDisplay:10.37,2013-09-17 21:03:00,
2013-09-17 17:08:00,64.2,49.1,30.09,ESE,120,0.0,0.0,58,0.00,SCT,,0.00,WeatherDisplay:10.37,2013-09-17 21:08:00,
2013-09-17 17:13:00,64.2,49.6,30.09,ESE,120,0.0,0.0,59,0.00,SCT,,0.00,WeatherDisplay:10.37,2013-09-17 21:13:00,
2013-09-17 17:18:00,64.2,49.6,30.09,ESE,120,0.0,0.0,59,0.00,SCT,,0.00,WeatherDisplay:10.37,2013-09-17 21:18:00,
2013-09-17 17:23:00,64.4,49.8,30.09,South,180,3.5,3.5,59,0.00,BKN,,0.00,WeatherDisplay:10.37,2013-09-17 21:23:00,
2013-09-17 17:28:00,64.4,49.8,30.09,South,180,3.5,3.5,59,0.00,BKN,,0.00,WeatherDisplay:10.37,2013-09-17 21:28:00,
2013-09-17 17:33:00,64.2,49.6,30.09,South,180,3.5,3.5,59,0.00,BKN,,0.00,WeatherDisplay:10.37,2013-09-17 21:33:00,
2013-09-17 17:38:00,64.0,49.4,30.09,South,180,3.5,3.5,59,0.00,BKN,,0.00,WeatherDisplay:10.37,2013-09-17 21:38:00,
2013-09-17 17:43:00,64.0,49.4,30.09,South,180,0.0,0.0,59,0.00,SCT,,0.00,WeatherDisplay:10.37,2013-09-17 21:43:00,
2013-09-17 17:48:00,63.9,49.7,30.09,South,180,0.0,0.0,60,0.00,SCT,,0.00,WeatherDisplay:10.37,2013-09-17 21:48:00,
2013-09-17 17:53:00,63.9,49.7,30.09,South,180,0.0,0.0,60,0.00,SCT,,0.00,WeatherDisplay:10.37,2013-09-17 21:53:00,
2013-09-17 17:58:00,64.0,49.9,30.08,South,180,0.0,0.0,60,0.00,SCT,,0.00,WeatherDisplay:10.37,2013-09-17 21:58:00,
2013-09-17 18:03:00,64.0,49.9,30.08,South,180,0.0,0.0,60,0.00,CLR,,0.00,WeatherDisplay:10.37,2013-09-17 22:03:00,
2013-09-17 18:08:00,64.0,49.9,30.08,South,180,0.0,0.0,60,0.00,CLR,,0.00,WeatherDisplay:10.37,2013-09-17 22:08:00,
2013-09-17 18:13:00,64.0,49.9,30.08,South,180,0.0,0.0,60,0.00,CLR,,0.00,WeatherDisplay:10.37,2013-09-17 22:13:00,
2013-09-17 18:19:00,64.0,49.9,30.08,South,180,0.0,0.0,60,0.00,CLR,,0.00,WeatherDisplay:10.37,2013-09-17 22:19:00,
2013-09-17 18:24:00,63.7,49.5,30.08,South,170,4.6,4.6,60,0.00,CLR,,0.00,WeatherDisplay:10.37,2013-09-17 22:24:00,
2013-09-17 18:29:00,63.5,49.4,30.08,South,170,4.6,4.6,60,0.00,CLR,,0.00,WeatherDisplay:10.37,2013-09-17 22:29:00,
2013-09-17 18:34:00,63.1,49.5,30.09,South,170,4.6,4.6,61,0.00,CLR,,0.00,WeatherDisplay:10.37,2013-09-17 22:34:00,
2013-09-17 18:39:00,63.1,49.5,30.08,South,170,4.6,4.6,61,0.00,CLR,,0.00,WeatherDisplay:10.37,2013-09-17 22:39:00,
2013-09-17 18:44:00,63.0,49.3,30.08,SSE,150,4.6,4.6,61,0.00,SCT,,0.00,WeatherDisplay:10.37,2013-09-17 22:44:00,
2013-09-17 18:49:00,62.6,49.4,30.08,SSE,150,4.6,4.6,62,0.00,SCT,,0.00,WeatherDisplay:10.37,2013-09-17 22:49:00,
2013-09-17 18:54:00,62.4,49.2,30.08,SSE,150,4.6,4.6,62,0.00,SCT,,0.00,WeatherDisplay:10.37,2013-09-17 22:54:00,
2013-09-17 18:59:00,62.2,49.1,30.08,SSE,150,4.6,4.6,62,0.00,SCT,,0.00,WeatherDisplay:10.37,2013-09-17 22:59:00,
2013-09-17 19:04:00,61.9,48.7,30.08,SSE,150,3.5,3.5,62,0.00,SCT,,0.00,WeatherDisplay:10.37,2013-09-17 23:04:00,
2013-09-17 19:09:00,61.7,49.0,30.08,SSE,150,3.5,3.5,63,0.00,SCT,,0.00,WeatherDisplay:10.37,2013-09-17 23:09:00,
2013-09-17 19:14:00,61.3,48.6,30.08,SSE,150,3.5,3.5,63,0.00,SCT,,0.00,WeatherDisplay:10.37,2013-09-17 23:14:00,
2013-09-17 19:19:00,61.0,48.7,30.08,SSE,150,3.5,3.5,64,0.00,SCT,,0.00,WeatherDisplay:10.37,2013-09-17 23:19:00,
2013-09-17 19:24:00,60.6,48.8,30.08,SE,130,3.5,3.5,65,0.00,CLR,,0.00,WeatherDisplay:10.37,2013-09-17 23:24:00,
2013-09-17 19:29:00,60.4,49.0,30.08,SE,130,3.5,3.5,66,0.00,CLR,,0.00,WeatherDisplay:10.37,2013-09-17 23:29:00,
2013-09-17 19:34:00,60.1,48.7,30.08,SE,130,3.5,3.5,66,0.00,CLR,,0.00,WeatherDisplay:10.37,2013-09-17 23:34:00,
2013-09-17 19:39:00,59.9,48.5,30.08,SE,130,3.5,3.5,66,0.00,CLR,,0.00,WeatherDisplay:10.37,2013-09-17 23:39:00,
2013-09-17 19:44:00,59.4,48.4,30.08,SE,140,3.5,3.5,67,0.00,CLR,,0.00,WeatherDisplay:10.37,2013-09-17 23:44:00,
2013-09-17 19:49:00,58.8,48.3,30.08,SE,140,3.5,3.5,68,0.00,CLR,,0.00,WeatherDisplay:10.37,2013-09-17 23:49:00,
2013-09-17 19:54:00,58.8,48.3,30.08,SE,140,3.5,3.5,68,0.00,CLR,,0.00,WeatherDisplay:10.37,2013-09-17 23:54:00,
2013-09-17 19:59:00,58.8,48.3,30.08,SE,140,3.5,3.5,68,0.00,CLR,,0.00,WeatherDisplay:10.37,2013-09-17 23:59:00,
2013-09-17 20:04:00,58.6,48.1,30.08,SE,140,3.5,3.5,68,0.00,CLR,,0.00,WeatherDisplay:10.37,2013-09-18 00:04:00,
2013-09-17 20:09:00,58.3,47.8,30.08,SE,140,3.5,3.5,68,0.00,CLR,,0.00,WeatherDisplay:10.37,2013-09-18 00:09:00,
2013-09-17 20:14:00,58.1,47.6,30.09,SE,140,3.5,3.5,68,0.00,CLR,,0.00,WeatherDisplay:10.37,2013-09-18 00:14:00,
2013-09-17 20:19:00,57.9,47.4,30.09,SE,140,3.5,3.5,68,0.00,CLR,,0.00,WeatherDisplay:10.37,2013-09-18 00:19:00,
2013-09-17 20:24:00,57.7,47.2,30.09,SE,140,0.0,0.0,68,0.00,CLR,,0.00,WeatherDisplay:10.37,2013-09-18 00:24:00,
2013-09-17 20:29:00,57.4,46.5,30.09,SE,140,0.0,0.0,67,0.00,CLR,,0.00,WeatherDisplay:10.37,2013-09-18 00:29:00,
2013-09-17 20:34:00,57.2,46.3,30.09,SE,140,0.0,0.0,67,0.00,CLR,,0.00,WeatherDisplay:10.37,2013-09-18 00:34:00,
2013-09-17 20:39:00,56.8,46.4,30.09,SE,140,0.0,0.0,68,0.00,CLR,,0.00,WeatherDisplay:10.37,2013-09-18 00:39:00,
2013-09-17 20:44:00,56.5,46.0,30.09,SE,140,0.0,0.0,68,0.00,CLR,,0.00,WeatherDisplay:10.37,2013-09-18 00:44:00,
2013-09-17 20:49:00,56.3,45.9,30.09,SE,140,0.0,0.0,68,0.00,CLR,,0.00,WeatherDisplay:10.37,2013-09-18 00:49:00,
2013-09-17 20:54:00,56.1,45.7,30.09,SE,140,0.0,0.0,68,0.00,CLR,,0.00,WeatherDisplay:10.37,2013-09-18 00:54:00,
2013-09-17 20:59:00,55.9,45.9,30.09,SE,140,0.0,0.0,69,0.00,CLR,,0.00,WeatherDisplay:10.37,2013-09-18 00:59:00,
2013-09-17 21:04:00,55.8,45.4,30.09,SE,140,0.0,0.0,68,0.00,CLR,,0.00,WeatherDisplay:10.37,2013-09-18 01:04:00,
2013-09-17 21:09:00,55.6,45.2,30.10,SE,140,0.0,0.0,68,0.00,CLR,,0.00,WeatherDisplay:10.37,2013-09-18 01:09:00,
2013-09-17 21:14:00,55.6,45.2,30.10,SE,140,0.0,0.0,68,0.00,CLR,,0.00,WeatherDisplay:10.37,2013-09-18 01:14:00,
2013-09-17 21:19:00,55.4,45.0,30.10,SE,140,0.0,0.0,68,0.00,CLR,,0.00,WeatherDisplay:10.37,2013-09-18 01:19:00,
2013-09-17 21:24:00,55.2,44.4,30.10,SE,140,0.0,0.0,67,0.00,CLR,,0.00,WeatherDisplay:10.37,2013-09-18 01:24:00,
2013-09-17 21:29:00,55.2,44.4,30.10,SE,140,0.0,0.0,67,0.00,CLR,,0.00,WeatherDisplay:10.37,2013-09-18 01:29:00,
2013-09-17 21:34:00,55.2,44.8,30.10,SE,140,0.0,0.0,68,0.00,CLR,,0.00,WeatherDisplay:10.37,2013-09-18 01:34:00,
2013-09-17 21:39:00,55.0,44.7,30.10,SE,140,0.0,0.0,68,0.00,CLR,,0.00,WeatherDisplay:10.37,2013-09-18 01:39:00,
2013-09-17 21:44:00,55.0,44.7,30.10,SE,140,0.0,0.0,68,0.00,CLR,,0.00,WeatherDisplay:10.37,2013-09-18 01:44:00,
2013-09-17 21:49:00,55.0,44.7,30.11,SE,140,0.0,0.0,68,0.00,CLR,,0.00,WeatherDisplay:10.37,2013-09-18 01:49:00,
2013-09-17 21:54:00,54.9,44.5,30.11,SE,140,0.0,0.0,68,0.00,CLR,,0.00,WeatherDisplay:10.37,2013-09-18 01:54:00,
2013-09-17 21:59:00,54.7,44.3,30.11,SE,140,0.0,0.0,68,0.00,CLR,,0.00,WeatherDisplay:10.37,2013-09-18 01:59:00,
2013-09-17 22:04:00,54.5,44.2,30.11,SE,140,0.0,0.0,68,0.00,CLR,,0.00,WeatherDisplay:10.37,2013-09-18 02:04:00,
2013-09-17 22:09:00,54.3,44.0,30.11,SE,140,0.0,0.0,68,0.00,CLR,,0.00,WeatherDisplay:10.37,2013-09-18 02:09:00,
2013-09-17 22:14:00,54.3,44.4,30.11,SE,140,0.0,0.0,69,0.00,CLR,,0.00,WeatherDisplay:10.37,2013-09-18 02:14:00,
2013-09-17 22:19:00,54.3,44.4,30.11,SE,140,0.0,0.0,69,0.00,CLR,,0.00,WeatherDisplay:10.37,2013-09-18 02:19:00,
2013-09-17 22:24:00,54.3,44.7,30.11,SE,140,0.0,0.0,70,0.00,CLR,,0.00,WeatherDisplay:10.37,2013-09-18 02:24:00,
2013-09-17 22:29:00,54.3,44.7,30.11,SE,140,0.0,0.0,70,0.00,CLR,,0.00,WeatherDisplay:10.37,2013-09-18 02:29:00,
2013-09-17 22:34:00,54.3,44.7,30.11,SE,140,0.0,0.0,70,0.00,CLR,,0.00,WeatherDisplay:10.37,2013-09-18 02:34:00,
2013-09-17 22:39:00,54.3,44.7,30.11,SE,140,0.0,0.0,70,0.00,CLR,,0.00,WeatherDisplay:10.37,2013-09-18 02:39:00,
2013-09-17 22:44:00,54.1,44.9,30.11,SE,140,0.0,0.0,71,0.00,CLR,,0.00,WeatherDisplay:10.37,2013-09-18 02:44:00,
2013-09-17 22:49:00,54.1,44.9,30.11,SE,140,0.0,0.0,71,0.00,CLR,,0.00,WeatherDisplay:10.37,2013-09-18 02:49:00,
2013-09-17 22:54:00,54.1,44.9,30.11,SE,140,0.0,0.0,71,0.00,CLR,,0.00,WeatherDisplay:10.37,2013-09-18 02:54:00,
2013-09-17 22:59:00,54.1,44.9,30.11,SE,140,0.0,0.0,71,0.00,CLR,,0.00,WeatherDisplay:10.37,2013-09-18 02:59:00,
2013-09-17 23:04:00,54.3,45.5,30.11,SE,140,0.0,0.0,72,0.00,CLR,,0.00,WeatherDisplay:10.37,2013-09-18 03:04:00,
2013-09-17 23:09:00,54.3,45.5,30.11,SE,140,0.0,0.0,72,0.00,CLR,,0.00,WeatherDisplay:10.37,2013-09-18 03:09:00,
2013-09-17 23:14:00,54.3,45.5,30.11,SE,140,0.0,0.0,72,0.00,CLR,,0.00,WeatherDisplay:10.37,2013-09-18 03:14:00,
2013-09-17 23:19:00,54.3,45.5,30.11,SE,140,0.0,0.0,72,0.00,CLR,,0.00,WeatherDisplay:10.37,2013-09-18 03:19:00,
2013-09-17 23:24:00,54.3,45.5,30.11,SE,140,0.0,0.0,72,0.00,CLR,,0.00,WeatherDisplay:10.37,2013-09-18 03:24:00,
2013-09-17 23:29:00,54.3,45.5,30.11,SE,140,0.0,0.0,72,0.00,CLR,,0.00,WeatherDisplay:10.37,2013-09-18 03:29:00,
2013-09-17 23:34:00,54.1,45.3,30.11,SE,140,0.0,0.0,72,0.00,CLR,,0.00,WeatherDisplay:10.37,2013-09-18 03:34:00,
2013-09-17 23:39:00,53.8,45.0,30.11,SE,140,0.0,0.0,72,0.00,CLR,,0.00,WeatherDisplay:10.37,2013-09-18 03:39:00,
2013-09-17 23:44:00,53.4,45.0,30.10,SE,140,0.0,0.0,73,0.00,CLR,,0.00,WeatherDisplay:10.37,2013-09-18 03:44:00,
2013-09-17 23:50:00,53.2,44.8,30.11,SE,140,0.0,0.0,73,0.00,CLR,,0.00,WeatherDisplay:10.37,2013-09-18 03:50:00,
2013-09-17 23:55:00,52.9,44.5,30.11,SE,140,0.0,0.0,73,0.00,CLR,,0.00,WeatherDisplay:10.37,2013-09-18 03:55:00,